Time;durP1;ratioP1;P1;durP2;ratioP2;P2;SDS_P1;SDS_P2;PMS_P1;PMS_P2;Temp;Humidity;BMP_temperature;BMP_pressure;BME280_temperature;BME280_humidity;BME280_pressure;Samples;Min_cycle;Max_cycle;Signal;HPM_P1;HPM_P2
2023/09/14 00:00:26;;;;;;;5.25;4.75;;;;;;;;;;5043973;28;20430;-78
2023/09/14 00:02:52;;;;;;;5.18;4.70;;;;;;;;;;5053570;28;20380;-78
2023/09/14 00:05:18;;;;;;;5.50;5.00;;;;;;;;;;5055194;28;20434;-78
2023/09/14 00:07:44;;;;;;;4.70;4.30;;;;;;;;;;5054797;28;20385;-79
2023/09/14 00:10:10;;;;;;;4.90;4.50;;;;;;;;;;5055731;28;20468;-78
2023/09/14 00:12:36;;;;;;;4.68;4.28;;;;;;;;;;5055016;28;20389;-77
2023/09/14 00:15:02;;;;;;;5.53;4.60;;;;;;;;;;5044439;28;20394;-77
2023/09/14 00:17:28;;;;;;;4.63;4.30;;;;;;;;;;5040453;28;20407;-77
2023/09/14 00:19:54;;;;;;;5.22;4.60;;;;;;;;;;5044364;28;20414;-78
2023/09/14 00:22:20;;;;;;;4.97;4.47;;;;;;;;;;5039871;28;20416;-78
2023/09/14 00:24:46;;;;;;;5.55;4.80;;;;;;;;;;5032579;28;20481;-78
2023/09/14 00:27:12;;;;;;;4.93;4.53;;;;;;;;;;5026283;28;20394;-78
2023/09/14 00:29:38;;;;;;;4.80;4.40;;;;;;;;;;5046025;28;20454;-78
2023/09/14 00:32:04;;;;;;;5.17;4.77;;;;;;;;;;5037890;28;20384;-78
2023/09/14 00:34:30;;;;;;;5.72;5.18;;;;;;;;;;5034796;28;20522;-79
2023/09/14 00:36:56;;;;;;;4.97;4.57;;;;;;;;;;5045255;28;20447;-79
2023/09/14 00:39:22;;;;;;;5.68;5.10;;;;;;;;;;5046520;28;20882;-78
2023/09/14 00:41:48;;;;;;;5.72;5.15;;;;;;;;;;5047608;28;20434;-79
2023/09/14 00:44:14;;;;;;;4.77;4.10;;;;;;;;;;5039931;28;20406;-79
2023/09/14 00:46:40;;;;;;;5.33;4.30;;;;;;;;;;5049272;28;20415;-79
2023/09/14 00:49:06;;;;;;;5.68;5.07;;;;;;;;;;5028776;28;20404;-79
2023/09/14 00:51:33;;;;;;;4.82;4.40;;;;;;;;;;5043333;28;20750;-78
2023/09/14 00:53:59;;;;;;;4.95;4.45;;;;;;;;;;5046800;28;20402;-79
2023/09/14 00:56:26;;;;;;;4.90;4.50;;;;;;;;;;5042420;28;20493;-79
2023/09/14 00:58:52;;;;;;;4.90;4.50;;;;;;;;;;5039096;28;20402;-79
2023/09/14 01:01:18;;;;;;;4.27;3.97;;;;;;;;;;5046123;28;20413;-78
2023/09/14 01:03:44;;;;;;;4.80;4.40;;;;;;;;;;5047066;28;20462;-79
2023/09/14 01:06:11;;;;;;;4.10;3.80;;;;;;;;;;5044023;28;20381;-78
2023/09/14 01:08:37;;;;;;;4.22;3.83;;;;;;;;;;5055284;28;20381;-78
2023/09/14 01:11:03;;;;;;;3.85;3.60;;;;;;;;;;5049640;28;20424;-78
2023/09/14 01:13:32;;;;;;;4.35;3.95;;;;;;;;;;5047793;28;20412;-78
2023/09/14 01:16:11;;;;;;;5.35;3.95;;;;;;;;;;5041223;28;20381;-78
2023/09/14 01:18:41;;;;;;;4.10;3.80;;;;;;;;;;5052945;28;20439;-77
2023/09/14 01:21:29;;;;;;;4.80;3.78;;;;;;;;;;5052297;28;20406;-77
2023/09/14 01:26:53;;;;;;;3.80;3.50;;;;;;;;;;5038605;28;20393;-77
2023/09/14 01:29:19;;;;;;;4.28;3.90;;;;;;;;;;5052063;28;20705;-77
2023/09/14 01:32:05;;;;;;;4.95;4.10;;;;;;;;;;5052752;28;20393;-77
2023/09/14 01:34:34;;;;;;;4.05;3.75;;;;;;;;;;4952551;29;20498;-77
2023/09/14 01:37:03;;;;;;;5.20;4.68;;;;;;;;;;5038982;28;20400;-77
2023/09/14 01:39:30;;;;;;;5.18;4.78;;;;;;;;;;5034552;28;20761;-77
2023/09/14 01:41:57;;;;;;;6.20;5.70;;;;;;;;;;5052503;28;20973;-77
2023/09/14 01:44:25;;;;;;;6.10;5.70;;;;;;;;;;5053133;28;20421;-77
2023/09/14 01:46:51;;;;;;;6.57;6.07;;;;;;;;;;5052643;28;20396;-77
2023/09/14 01:49:17;;;;;;;7.10;6.50;;;;;;;;;;5052337;28;20850;-77
2023/09/14 01:51:43;;;;;;;6.75;6.25;;;;;;;;;;5052899;28;20382;-77
2023/09/14 01:54:12;;;;;;;6.35;5.88;;;;;;;;;;5052122;28;20397;-77
2023/09/14 01:56:38;;;;;;;7.57;7.07;;;;;;;;;;5039094;28;20438;-77
2023/09/14 01:59:07;;;;;;;7.10;6.60;;;;;;;;;;5052641;28;20506;-77
2023/09/14 02:01:33;;;;;;;6.75;6.35;;;;;;;;;;5051794;28;20417;-77
2023/09/14 02:03:59;;;;;;;6.35;5.95;;;;;;;;;;5052618;28;20708;-77
2023/09/14 02:06:25;;;;;;;6.57;6.00;;;;;;;;;;5052584;28;20421;-77
2023/09/14 02:08:51;;;;;;;7.07;6.60;;;;;;;;;;5052349;28;20427;-77
2023/09/14 02:11:17;;;;;;;7.18;6.68;;;;;;;;;;5051923;28;20382;-77
2023/09/14 02:13:43;;;;;;;7.75;7.20;;;;;;;;;;5052190;28;20405;-77
2023/09/14 02:16:09;;;;;;;7.68;7.18;;;;;;;;;;5051869;28;20471;-77
2023/09/14 02:18:36;;;;;;;8.50;7.90;;;;;;;;;;5051848;28;20386;-77
2023/09/14 02:21:02;;;;;;;8.13;7.53;;;;;;;;;;5052078;28;20413;-77
2023/09/14 02:23:28;;;;;;;7.75;7.15;;;;;;;;;;5051992;28;20515;-77
2023/09/14 02:25:54;;;;;;;7.22;6.72;;;;;;;;;;5033920;28;20385;-77
2023/09/14 02:28:20;;;;;;;7.20;6.70;;;;;;;;;;5051720;28;20717;-77
2023/09/14 02:30:46;;;;;;;7.07;6.57;;;;;;;;;;5052380;28;20385;-77
2023/09/14 02:33:12;;;;;;;6.68;6.20;;;;;;;;;;5051418;28;20393;-77
2023/09/14 02:35:41;;;;;;;6.95;6.45;;;;;;;;;;5051380;28;20377;-77
2023/09/14 02:38:07;;;;;;;5.97;5.57;;;;;;;;;;5051775;28;20862;-77
2023/09/14 02:40:34;;;;;;;6.63;6.20;;;;;;;;;;5051546;28;20878;-77
2023/09/14 02:43:00;;;;;;;6.97;6.47;;;;;;;;;;5051831;28;20385;-77
2023/09/14 02:45:26;;;;;;;6.30;5.90;;;;;;;;;;5051829;28;20392;-77
2023/09/14 02:48:20;;;;;;;6.05;5.47;;;;;;;;;;5051864;28;20393;-77
2023/09/14 02:50:46;;;;;;;6.30;5.82;;;;;;;;;;5051904;28;20427;-77
2023/09/14 02:53:12;;;;;;;6.57;6.18;;;;;;;;;;5033634;28;20385;-77
2023/09/14 02:55:38;;;;;;;6.43;6.03;;;;;;;;;;5052049;28;20393;-77
2023/09/14 02:58:08;;;;;;;6.60;6.10;;;;;;;;;;5051687;28;20381;-77
2023/09/14 03:00:34;;;;;;;5.90;5.50;;;;;;;;;;5051831;28;20409;-77
2023/09/14 03:03:00;;;;;;;6.33;5.93;;;;;;;;;;5051313;28;20392;-77
2023/09/14 03:05:26;;;;;;;6.68;6.18;;;;;;;;;;5051641;28;20385;-77
2023/09/14 03:07:52;;;;;;;7.22;6.70;;;;;;;;;;5051051;28;20385;-77
2023/09/14 03:10:18;;;;;;;6.93;6.53;;;;;;;;;;5050945;28;20455;-77
2023/09/14 03:18:55;;;;;;;6.88;6.47;;;;;;;;;;4996986;28;20429;-77
2023/09/14 03:21:30;;;;;;;8.50;7.80;;;;;;;;;;5051455;28;20770;-77
2023/09/14 03:24:00;;;;;;;8.68;8.07;;;;;;;;;;5050955;28;20413;-77
2023/09/14 03:26:28;;;;;;;6.82;6.43;;;;;;;;;;5051332;28;20469;-77
2023/09/14 03:28:55;;;;;;;6.00;5.60;;;;;;;;;;5051366;28;20385;-77
2023/09/14 03:31:21;;;;;;;5.63;5.22;;;;;;;;;;5051224;28;20738;-77
2023/09/14 03:33:47;;;;;;;5.57;5.28;;;;;;;;;;5051624;28;20739;-80
2023/09/14 03:36:14;;;;;;;5.35;4.95;;;;;;;;;;5051987;28;20393;-78
2023/09/14 03:38:40;;;;;;;4.43;4.13;;;;;;;;;;5051334;28;20389;-78
2023/09/14 03:41:06;;;;;;;4.80;4.40;;;;;;;;;;5050760;28;20479;-78
2023/09/14 03:43:32;;;;;;;4.63;4.32;;;;;;;;;;5050992;28;20389;-78
2023/09/14 03:45:58;;;;;;;4.40;4.10;;;;;;;;;;5050738;28;20394;-78
2023/09/14 03:48:24;;;;;;;4.55;4.25;;;;;;;;;;5051263;28;20381;-78
2023/09/14 03:50:52;;;;;;;4.20;4.00;;;;;;;;;;5050950;28;20786;-78
2023/09/14 03:56:49;;;;;;;4.00;3.80;;;;;;;;;;4934759;29;20402;-78
2023/09/14 03:59:15;;;;;;;3.60;3.30;;;;;;;;;;5053850;28;20394;-78
2023/09/14 04:01:41;;;;;;;3.80;3.60;;;;;;;;;;5053867;28;20416;-78
2023/09/14 04:04:07;;;;;;;4.10;3.90;;;;;;;;;;5053833;28;20381;-77
2023/09/14 04:06:33;;;;;;;4.05;3.75;;;;;;;;;;5053733;28;20390;-78
2023/09/14 04:09:15;;;;;;;4.13;3.83;;;;;;;;;;5054105;28;20480;-78
2023/09/14 04:11:41;;;;;;;3.90;3.70;;;;;;;;;;5053939;28;20381;-78
2023/09/14 04:14:07;;;;;;;4.32;4.03;;;;;;;;;;5053882;28;20382;-78
2023/09/14 04:16:33;;;;;;;4.47;4.07;;;;;;;;;;5054233;28;20411;-77
2023/09/14 04:19:04;;;;;;;4.10;3.80;;;;;;;;;;5053873;28;20389;-78
2023/09/14 04:21:30;;;;;;;4.65;4.25;;;;;;;;;;5053820;28;20902;-77
2023/09/14 04:23:59;;;;;;;4.82;4.43;;;;;;;;;;5054169;28;20384;-77
2023/09/14 04:26:34;;;;;;;4.70;4.30;;;;;;;;;;5045331;28;20489;-77
2023/09/14 04:29:00;;;;;;;4.70;4.40;;;;;;;;;;5043083;28;20390;-76
2023/09/14 04:31:26;;;;;;;5.50;5.00;;;;;;;;;;5019939;28;20406;-77
2023/09/14 04:33:52;;;;;;;5.20;4.80;;;;;;;;;;5050602;28;20377;-77
2023/09/14 04:36:18;;;;;;;5.30;4.90;;;;;;;;;;5051939;28;20380;-78
2023/09/14 04:38:44;;;;;;;4.97;4.67;;;;;;;;;;5053176;28;20393;-77
2023/09/14 04:41:10;;;;;;;6.10;5.70;;;;;;;;;;5053190;28;20418;-78
2023/09/14 04:43:36;;;;;;;5.75;5.35;;;;;;;;;;5053278;28;20385;-77
2023/09/14 04:46:06;;;;;;;5.43;5.03;;;;;;;;;;5053774;28;20484;-77
2023/09/14 04:48:33;;;;;;;5.32;5.00;;;;;;;;;;5053673;28;20393;-77
2023/09/14 04:50:59;;;;;;;5.43;5.03;;;;;;;;;;5053122;28;20468;-77
2023/09/14 04:53:26;;;;;;;5.40;5.10;;;;;;;;;;5052825;28;20464;-77
2023/09/14 04:55:52;;;;;;;5.00;4.60;;;;;;;;;;5053016;28;20373;-77
2023/09/14 04:58:18;;;;;;;4.93;4.63;;;;;;;;;;5052963;28;20459;-77
2023/09/14 05:00:44;;;;;;;5.15;4.65;;;;;;;;;;5052744;28;20447;-77
2023/09/14 05:03:09;;;;;;;4.80;4.50;;;;;;;;;;5053155;28;20405;-77
2023/09/14 05:05:35;;;;;;;4.80;4.50;;;;;;;;;;5052954;28;20798;-77
2023/09/14 05:08:02;;;;;;;4.95;4.57;;;;;;;;;;5052775;28;20381;-77
2023/09/14 05:10:28;;;;;;;4.70;4.30;;;;;;;;;;5052871;28;20373;-77
2023/09/14 05:12:54;;;;;;;4.82;4.50;;;;;;;;;;5052773;28;20393;-77
2023/09/14 05:15:20;;;;;;;4.82;4.53;;;;;;;;;;5053270;28;20381;-77
2023/09/14 05:17:46;;;;;;;4.68;4.35;;;;;;;;;;5053069;28;20461;-77
2023/09/14 05:20:14;;;;;;;4.90;4.43;;;;;;;;;;5052418;28;20381;-77
2023/09/14 05:22:40;;;;;;;4.55;4.25;;;;;;;;;;5052006;28;20897;-77
2023/09/14 05:25:07;;;;;;;4.60;4.20;;;;;;;;;;5051708;28;20385;-77
2023/09/14 05:27:39;;;;;;;4.93;4.43;;;;;;;;;;5052562;28;20392;-77
2023/09/14 05:30:06;;;;;;;4.82;4.47;;;;;;;;;;5052358;28;20892;-77
2023/09/14 05:32:32;;;;;;;5.00;4.60;;;;;;;;;;5052511;28;20924;-77
2023/09/14 05:34:58;;;;;;;5.07;4.78;;;;;;;;;;5052865;28;20382;-79
2023/09/14 05:37:24;;;;;;;5.17;4.77;;;;;;;;;;5047666;28;20387;-78
2023/09/14 05:39:50;;;;;;;5.28;4.97;;;;;;;;;;5044108;28;20369;-77
2023/09/14 05:42:16;;;;;;;5.68;5.18;;;;;;;;;;5052425;28;20935;-77
2023/09/14 05:44:43;;;;;;;5.53;5.05;;;;;;;;;;5052947;28;20385;-77
2023/09/14 05:47:09;;;;;;;5.38;4.97;;;;;;;;;;5051978;28;20385;-77
2023/09/14 05:49:34;;;;;;;5.65;5.25;;;;;;;;;;5052410;28;20738;-77
2023/09/14 05:52:00;;;;;;;5.88;5.38;;;;;;;;;;5051791;28;20412;-77
2023/09/14 05:54:26;;;;;;;5.82;5.43;;;;;;;;;;5051647;28;20389;-77
2023/09/14 05:56:53;;;;;;;6.53;5.93;;;;;;;;;;5053175;28;20381;-78
2023/09/14 05:59:21;;;;;;;5.63;5.22;;;;;;;;;;5052862;28;20378;-78
2023/09/14 06:01:47;;;;;;;6.07;5.57;;;;;;;;;;5052593;28;20859;-78
2023/09/14 06:04:13;;;;;;;6.65;6.05;;;;;;;;;;5052242;28;20389;-78
2023/09/14 06:06:39;;;;;;;6.72;6.22;;;;;;;;;;5052370;28;20388;-78
2023/09/14 06:09:05;;;;;;;6.30;5.75;;;;;;;;;;5052711;28;20388;-77
2023/09/14 06:11:31;;;;;;;6.60;6.10;;;;;;;;;;5051988;28;20378;-78
2023/09/14 06:13:57;;;;;;;6.80;6.20;;;;;;;;;;5052694;28;20381;-78
2023/09/14 06:16:23;;;;;;;6.90;6.40;;;;;;;;;;5052888;28;20374;-78
2023/09/14 06:18:49;;;;;;;6.95;6.45;;;;;;;;;;5052588;28;20416;-77
2023/09/14 06:21:15;;;;;;;6.80;6.30;;;;;;;;;;5055006;28;20405;-80
2023/09/14 06:23:41;;;;;;;7.43;6.73;;;;;;;;;;5055508;28;20377;-80
2023/09/14 06:26:07;;;;;;;7.28;6.57;;;;;;;;;;5055497;28;20857;-80
2023/09/14 06:28:33;;;;;;;7.72;7.22;;;;;;;;;;5054816;28;20381;-80
2023/09/14 06:30:59;;;;;;;8.00;7.30;;;;;;;;;;5055373;28;20392;-80
2023/09/14 06:33:25;;;;;;;8.20;7.50;;;;;;;;;;5055222;28;20381;-79
2023/09/14 06:35:51;;;;;;;7.40;6.80;;;;;;;;;;5035712;28;20394;-80
2023/09/14 06:38:17;;;;;;;7.30;6.72;;;;;;;;;;5055255;28;20910;-79
2023/09/14 06:40:43;;;;;;;7.40;6.80;;;;;;;;;;5055023;28;20448;-80
2023/09/14 06:43:09;;;;;;;7.03;6.32;;;;;;;;;;5055278;28;20762;-81
2023/09/14 06:45:35;;;;;;;7.15;6.65;;;;;;;;;;5055075;28;20438;-80
2023/09/14 06:48:01;;;;;;;7.15;6.65;;;;;;;;;;5054945;28;20879;-80
2023/09/14 06:50:27;;;;;;;7.20;6.70;;;;;;;;;;5054935;28;20922;-80
2023/09/14 06:52:54;;;;;;;6.97;6.47;;;;;;;;;;5036873;28;20747;-80
2023/09/14 06:55:20;;;;;;;7.65;7.05;;;;;;;;;;5054981;28;20381;-80
2023/09/14 06:57:46;;;;;;;7.95;7.25;;;;;;;;;;5036912;28;20397;-81
2023/09/14 07:00:20;;;;;;;7.93;7.25;;;;;;;;;;5054811;28;20601;-80
2023/09/14 07:02:46;;;;;;;7.50;6.80;;;;;;;;;;5054342;28;20403;-79
2023/09/14 07:05:12;;;;;;;8.95;8.25;;;;;;;;;;5055708;28;20412;-82
2023/09/14 07:07:39;;;;;;;9.15;8.45;;;;;;;;;;5055405;28;20381;-80
2023/09/14 07:10:05;;;;;;;9.27;8.57;;;;;;;;;;5037546;28;20377;-81
2023/09/14 07:12:32;;;;;;;7.45;6.95;;;;;;;;;;5052866;28;20423;-79
2023/09/14 07:14:58;;;;;;;7.80;7.20;;;;;;;;;;5054267;28;20942;-79
2023/09/14 07:17:24;;;;;;;8.20;7.60;;;;;;;;;;5051278;28;20400;-79
2023/09/14 07:19:50;;;;;;;7.80;7.22;;;;;;;;;;5054085;28;20378;-80
2023/09/14 07:22:17;;;;;;;9.30;8.43;;;;;;;;;;5054456;28;20416;-79
2023/09/14 07:24:43;;;;;;;7.68;7.10;;;;;;;;;;5054486;28;20392;-79
2023/09/14 07:27:09;;;;;;;8.50;7.80;;;;;;;;;;5056296;28;20386;-80
2023/09/14 07:29:35;;;;;;;8.50;7.80;;;;;;;;;;5058901;28;20847;-81
2023/09/14 07:32:01;;;;;;;8.43;7.72;;;;;;;;;;5060429;28;20854;-81
2023/09/14 07:34:27;;;;;;;7.57;7.03;;;;;;;;;;5059509;28;20391;-82
2023/09/14 07:36:53;;;;;;;7.88;7.28;;;;;;;;;;5057597;28;20781;-80
2023/09/14 07:39:19;;;;;;;8.68;8.05;;;;;;;;;;5058000;28;20420;-82
2023/09/14 07:41:45;;;;;;;7.97;7.40;;;;;;;;;;5058401;28;20417;-82
2023/09/14 07:44:12;;;;;;;9.10;8.40;;;;;;;;;;5057411;28;20398;-81
2023/09/14 07:46:39;;;;;;;8.95;8.25;;;;;;;;;;5059405;28;20373;-82
2023/09/14 07:49:05;;;;;;;8.30;7.70;;;;;;;;;;5040323;28;20519;-82
2023/09/14 07:51:34;;;;;;;8.98;8.27;;;;;;;;;;5058614;28;20535;-81
2023/09/14 07:54:00;;;;;;;9.57;8.77;;;;;;;;;;5041844;28;20666;-82
2023/09/14 07:56:26;;;;;;;9.32;8.43;;;;;;;;;;5059648;28;20393;-82
2023/09/14 07:58:56;;;;;;;9.10;8.40;;;;;;;;;;5040913;28;20381;-82
2023/09/14 08:01:22;;;;;;;9.00;8.30;;;;;;;;;;5045137;28;20424;-82
2023/09/14 08:03:48;;;;;;;9.52;8.77;;;;;;;;;;5058268;28;20370;-81
2023/09/14 08:06:18;;;;;;;8.85;8.07;;;;;;;;;;5059467;28;20389;-81
2023/09/14 08:08:44;;;;;;;8.50;7.70;;;;;;;;;;5058878;28;20370;-81
2023/09/14 08:11:11;;;;;;;8.57;7.87;;;;;;;;;;5058044;28;20409;-81
2023/09/14 08:13:37;;;;;;;8.30;7.60;;;;;;;;;;5058920;28;20382;-81
2023/09/14 08:16:04;;;;;;;9.10;8.40;;;;;;;;;;5058267;28;20378;-81
2023/09/14 08:18:30;;;;;;;9.57;8.87;;;;;;;;;;5058280;28;20716;-81
2023/09/14 08:20:56;;;;;;;9.13;8.23;;;;;;;;;;5057990;28;20440;-81
2023/09/14 08:23:22;;;;;;;8.85;8.15;;;;;;;;;;5058812;28;20382;-81
2023/09/14 08:25:48;;;;;;;10.85;9.88;;;;;;;;;;5059221;28;20380;-81
2023/09/14 08:28:15;;;;;;;10.15;9.35;;;;;;;;;;5058962;28;20839;-82
2023/09/14 08:30:41;;;;;;;9.48;8.77;;;;;;;;;;5058686;28;20396;-81
2023/09/14 08:33:08;;;;;;;9.20;8.50;;;;;;;;;;5058496;28;20409;-81
2023/09/14 08:35:34;;;;;;;12.90;11.80;;;;;;;;;;5058608;28;20463;-81
2023/09/14 08:38:04;;;;;;;12.95;11.85;;;;;;;;;;5058770;28;20385;-81
2023/09/14 08:40:30;;;;;;;11.57;10.57;;;;;;;;;;5041015;28;20413;-81
2023/09/14 08:42:57;;;;;;;11.80;10.90;;;;;;;;;;5058911;28;20397;-81
2023/09/14 08:45:27;;;;;;;12.23;11.18;;;;;;;;;;5059015;28;20388;-81
2023/09/14 08:47:54;;;;;;;11.90;10.90;;;;;;;;;;5051127;28;20419;-81
2023/09/14 08:50:21;;;;;;;12.70;11.70;;;;;;;;;;5052034;28;20453;-81
2023/09/14 08:52:47;;;;;;;12.77;11.77;;;;;;;;;;5059387;28;20489;-81
2023/09/14 08:55:15;;;;;;;10.85;9.95;;;;;;;;;;5058703;28;20850;-81
2023/09/14 08:57:42;;;;;;;11.68;10.77;;;;;;;;;;5058558;28;20386;-81
2023/09/14 09:00:14;;;;;;;12.13;11.23;;;;;;;;;;5058534;28;20374;-81
2023/09/14 09:02:41;;;;;;;12.32;11.23;;;;;;;;;;5059188;28;20792;-81
2023/09/14 09:05:08;;;;;;;11.50;10.57;;;;;;;;;;5058985;28;20388;-81
2023/09/14 09:07:34;;;;;;;14.55;13.27;;;;;;;;;;5057605;28;20413;-81
2023/09/14 09:10:01;;;;;;;13.05;11.95;;;;;;;;;;5058910;28;20389;-81
2023/09/14 09:12:29;;;;;;;13.13;11.90;;;;;;;;;;5040184;28;20392;-81
2023/09/14 09:14:55;;;;;;;12.60;11.60;;;;;;;;;;5058297;28;20427;-81
2023/09/14 09:17:21;;;;;;;13.23;12.02;;;;;;;;;;5059031;28;20466;-81
2023/09/14 09:19:48;;;;;;;11.18;10.18;;;;;;;;;;5041469;28;20397;-81
2023/09/14 09:22:14;;;;;;;11.07;10.07;;;;;;;;;;5058857;28;20416;-81
2023/09/14 09:24:41;;;;;;;10.23;9.43;;;;;;;;;;5057992;28;20959;-81
2023/09/14 09:27:26;;;;;;;10.55;9.73;;;;;;;;;;5039165;28;20381;-82
2023/09/14 09:29:52;;;;;;;9.57;8.88;;;;;;;;;;5058036;28;20386;-81
2023/09/14 09:32:21;;;;;;;9.75;8.95;;;;;;;;;;5058031;28;20460;-81
2023/09/14 09:34:47;;;;;;;9.50;8.80;;;;;;;;;;5040991;28;20697;-81
2023/09/14 09:37:14;;;;;;;8.93;8.23;;;;;;;;;;5059934;28;20751;-81
2023/09/14 09:39:43;;;;;;;9.50;8.80;;;;;;;;;;5058795;28;20389;-81
2023/09/14 09:42:12;;;;;;;8.63;8.02;;;;;;;;;;5058372;28;20444;-81
2023/09/14 09:44:39;;;;;;;9.48;8.75;;;;;;;;;;5047366;28;20747;-81
2023/09/14 09:47:05;;;;;;;9.50;8.80;;;;;;;;;;5058218;28;20381;-81
2023/09/14 09:49:33;;;;;;;9.07;8.27;;;;;;;;;;5039913;28;20408;-81
2023/09/14 09:51:59;;;;;;;8.25;7.65;;;;;;;;;;5060145;28;20723;-81
2023/09/14 09:54:25;;;;;;;8.27;7.57;;;;;;;;;;5041254;28;20385;-81
2023/09/14 09:56:51;;;;;;;8.80;8.10;;;;;;;;;;5059581;28;20387;-81
2023/09/14 09:59:17;;;;;;;8.25;7.65;;;;;;;;;;5060110;28;20397;-81
2023/09/14 10:01:47;;;;;;;8.80;8.00;;;;;;;;;;5040935;28;20409;-81
2023/09/14 10:04:14;;;;;;;8.00;7.40;;;;;;;;;;5058949;28;20392;-81
2023/09/14 10:06:41;;;;;;;8.85;8.15;;;;;;;;;;5059281;28;20451;-81
2023/09/14 10:09:11;;;;;;;8.35;7.65;;;;;;;;;;5059761;28;20754;-81
2023/09/14 10:11:38;;;;;;;8.63;8.02;;;;;;;;;;5059287;28;20381;-81
2023/09/14 10:14:04;;;;;;;9.57;8.68;;;;;;;;;;5060262;28;20380;-82
2023/09/14 10:16:40;;;;;;;9.50;8.75;;;;;;;;;;5058965;28;20390;-81
2023/09/14 10:19:07;;;;;;;9.30;8.50;;;;;;;;;;5059704;28;20524;-81
2023/09/14 10:21:33;;;;;;;9.48;8.68;;;;;;;;;;5045443;28;20415;-81
2023/09/14 10:24:00;;;;;;;8.82;8.23;;;;;;;;;;5041393;28;20400;-81
2023/09/14 10:26:32;;;;;;;8.93;8.23;;;;;;;;;;5058965;28;20720;-81
2023/09/14 10:28:58;;;;;;;8.32;7.72;;;;;;;;;;5035531;28;20390;-81
2023/09/14 10:31:25;;;;;;;9.32;8.63;;;;;;;;;;5032200;28;20468;-81
2023/09/14 10:33:51;;;;;;;8.63;7.93;;;;;;;;;;5058103;28;20416;-81
2023/09/14 10:36:17;;;;;;;8.80;8.13;;;;;;;;;;5059369;28;20448;-81
2023/09/14 10:38:43;;;;;;;9.88;9.00;;;;;;;;;;5041130;28;20435;-82
2023/09/14 10:41:13;;;;;;;9.50;8.70;;;;;;;;;;5040243;28;20936;-82
2023/09/14 10:43:43;;;;;;;8.85;8.15;;;;;;;;;;5040977;28;20480;-81
2023/09/14 10:46:14;;;;;;;8.60;8.00;;;;;;;;;;5040762;28;20392;-82
2023/09/14 10:48:40;;;;;;;8.80;8.10;;;;;;;;;;5059209;28;20389;-81
2023/09/14 10:51:09;;;;;;;8.55;7.95;;;;;;;;;;5040925;28;20390;-82
2023/09/14 10:53:35;;;;;;;8.65;7.95;;;;;;;;;;5058514;28;20425;-82
2023/09/14 10:56:03;;;;;;;8.75;8.05;;;;;;;;;;5041799;28;20922;-82
2023/09/14 10:58:42;;;;;;;9.40;8.70;;;;;;;;;;5042373;28;20476;-82
2023/09/14 11:01:12;;;;;;;8.63;7.82;;;;;;;;;;5061624;28;20912;-82
2023/09/14 11:03:56;;;;;;;8.88;8.05;;;;;;;;;;5063141;28;20397;-82
2023/09/14 11:06:41;;;;;;;9.27;8.57;;;;;;;;;;5063506;28;20445;-81
2023/09/14 11:09:07;;;;;;;9.43;8.63;;;;;;;;;;5064083;28;20708;-81
2023/09/14 11:11:40;;;;;;;8.75;8.02;;;;;;;;;;5049635;28;20738;-82
2023/09/14 11:14:08;;;;;;;8.70;8.10;;;;;;;;;;5051632;28;20770;-81
2023/09/14 11:16:50;;;;;;;8.70;8.00;;;;;;;;;;5063409;28;20381;-82
2023/09/14 11:19:31;;;;;;;8.30;7.70;;;;;;;;;;5045914;28;20407;-82
2023/09/14 11:22:05;;;;;;;8.82;8.13;;;;;;;;;;5038912;28;20425;-82
2023/09/14 11:24:35;;;;;;;7.05;6.50;;;;;;;;;;5054227;28;20430;-82
2023/09/14 11:27:01;;;;;;;7.65;7.05;;;;;;;;;;5062119;28;20421;-82
2023/09/14 11:29:28;;;;;;;7.10;6.50;;;;;;;;;;5062075;28;20392;-82
2023/09/14 11:32:07;;;;;;;6.20;5.80;;;;;;;;;;5062607;28;20393;-80
2023/09/14 11:34:35;;;;;;;6.53;5.90;;;;;;;;;;5063391;28;20464;-82
2023/09/14 11:37:03;;;;;;;6.95;6.35;;;;;;;;;;5062244;28;20428;-81
2023/09/14 11:39:31;;;;;;;5.95;5.55;;;;;;;;;;5063572;28;20928;-82
2023/09/14 11:42:01;;;;;;;6.63;6.13;;;;;;;;;;5063652;28;20444;-81
2023/09/14 11:44:31;;;;;;;7.20;6.60;;;;;;;;;;5064075;28;20393;-82
2023/09/14 11:47:00;;;;;;;7.00;6.50;;;;;;;;;;5065209;28;20393;-82
2023/09/14 11:49:30;;;;;;;6.97;6.47;;;;;;;;;;5049588;28;20381;-82
2023/09/14 11:51:57;;;;;;;7.43;6.72;;;;;;;;;;5060726;28;20385;-82
2023/09/14 11:54:28;;;;;;;6.70;6.15;;;;;;;;;;5062303;28;20884;-82
2023/09/14 11:56:58;;;;;;;5.93;5.53;;;;;;;;;;5062665;28;20458;-82
2023/09/14 11:59:31;;;;;;;5.50;5.10;;;;;;;;;;5062707;28;20380;-82
2023/09/14 12:01:58;;;;;;;5.85;5.35;;;;;;;;;;5062170;28;20421;-82
2023/09/14 12:04:27;;;;;;;5.28;4.88;;;;;;;;;;5063439;28;20385;-82
2023/09/14 12:06:54;;;;;;;6.72;6.22;;;;;;;;;;5062649;28;20381;-82
2023/09/14 12:09:39;;;;;;;6.05;5.55;;;;;;;;;;5062467;28;20445;-81
2023/09/14 12:12:06;;;;;;;5.50;5.10;;;;;;;;;;5061959;28;20557;-81
2023/09/14 12:14:40;;;;;;;5.07;4.57;;;;;;;;;;5063213;28;20381;-82
2023/09/14 12:17:26;;;;;;;5.50;5.00;;;;;;;;;;5064112;28;20387;-82
2023/09/14 12:22:37;;;;;;;5.32;4.93;;;;;;;;;;5060011;28;20425;-81
2023/09/14 12:25:04;;;;;;;5.15;4.80;;;;;;;;;;5057755;28;20400;-81
2023/09/14 12:27:32;;;;;;;5.00;4.60;;;;;;;;;;5051749;28;20389;-82
2023/09/14 12:29:59;;;;;;;4.82;4.47;;;;;;;;;;5030368;28;20380;-82
2023/09/14 12:32:25;;;;;;;5.30;4.90;;;;;;;;;;5053386;28;20383;-82
2023/09/14 12:34:51;;;;;;;6.25;5.75;;;;;;;;;;5041493;28;20383;-82
2023/09/14 12:37:18;;;;;;;8.30;7.50;;;;;;;;;;5042977;28;20375;-82
2023/09/14 12:39:51;;;;;;;6.00;5.50;;;;;;;;;;5058458;28;20874;-82
2023/09/14 12:42:24;;;;;;;4.50;4.10;;;;;;;;;;5062258;28;20856;-82
2023/09/14 12:44:52;;;;;;;4.28;3.97;;;;;;;;;;5030268;28;20387;-82
2023/09/14 12:47:18;;;;;;;4.32;4.03;;;;;;;;;;5041560;28;20390;-83
2023/09/14 12:49:45;;;;;;;4.68;4.28;;;;;;;;;;5041406;28;20768;-81
2023/09/14 12:52:11;;;;;;;4.20;3.80;;;;;;;;;;5039928;28;20390;-84
2023/09/14 12:54:38;;;;;;;4.05;3.70;;;;;;;;;;5042492;28;20474;-83
2023/09/14 12:57:15;;;;;;;3.92;3.50;;;;;;;;;;5060831;28;20396;-82
2023/09/14 13:00:00;;;;;;;3.45;3.10;;;;;;;;;;5047964;28;20465;-82
2023/09/14 13:02:26;;;;;;;3.20;3.00;;;;;;;;;;5048980;28;20419;-83
2023/09/14 13:04:53;;;;;;;3.30;3.00;;;;;;;;;;5040794;28;20391;-83
2023/09/14 13:07:19;;;;;;;4.28;3.95;;;;;;;;;;5040710;28;20898;-83
2023/09/14 13:09:45;;;;;;;3.50;3.28;;;;;;;;;;5041285;28;20840;-83
2023/09/14 13:12:11;;;;;;;3.88;3.42;;;;;;;;;;5049464;28;20389;-83
2023/09/14 13:14:37;;;;;;;3.72;3.42;;;;;;;;;;5036211;28;20419;-83
2023/09/14 13:17:03;;;;;;;3.47;3.17;;;;;;;;;;5040084;28;21325;-83
2023/09/14 13:19:29;;;;;;;3.20;3.00;;;;;;;;;;5038428;28;20841;-83
2023/09/14 13:22:05;;;;;;;3.50;3.10;;;;;;;;;;5034487;28;20534;-83
2023/09/14 13:24:31;;;;;;;2.95;2.70;;;;;;;;;;5038625;28;20413;-83
2023/09/14 13:26:57;;;;;;;2.47;2.33;;;;;;;;;;5022518;28;20394;-83
2023/09/14 13:29:23;;;;;;;2.38;2.10;;;;;;;;;;5039522;28;20729;-83
2023/09/14 13:31:49;;;;;;;2.67;2.33;;;;;;;;;;5039637;28;20419;-83
2023/09/14 13:34:15;;;;;;;2.33;2.22;;;;;;;;;;5039501;28;20393;-83
2023/09/14 13:36:41;;;;;;;2.05;1.92;;;;;;;;;;5031585;28;20384;-83
2023/09/14 13:39:07;;;;;;;2.17;2.00;;;;;;;;;;5031236;28;20736;-83
2023/09/14 13:41:33;;;;;;;2.50;2.30;;;;;;;;;;5040471;28;20448;-83
2023/09/14 13:43:59;;;;;;;2.10;1.90;;;;;;;;;;5040308;28;20446;-83
2023/09/14 13:46:25;;;;;;;2.30;2.10;;;;;;;;;;5039049;28;20844;-83
2023/09/14 13:48:56;;;;;;;2.95;2.30;;;;;;;;;;5039225;28;20376;-83
2023/09/14 13:51:22;;;;;;;2.30;2.10;;;;;;;;;;5041030;28;20748;-83
2023/09/14 13:53:49;;;;;;;2.30;2.20;;;;;;;;;;5036068;28;20385;-83
2023/09/14 13:56:15;;;;;;;2.42;2.22;;;;;;;;;;5031232;28;20386;-83
2023/09/14 13:58:41;;;;;;;2.50;2.30;;;;;;;;;;5039331;28;20387;-83
2023/09/14 14:01:07;;;;;;;2.50;2.10;;;;;;;;;;5039709;28;20410;-83
2023/09/14 14:03:33;;;;;;;3.15;1.90;;;;;;;;;;5040872;28;20383;-83
2023/09/14 14:05:59;;;;;;;2.33;1.97;;;;;;;;;;5040575;28;20397;-83
2023/09/14 14:08:27;;;;;;;2.47;2.10;;;;;;;;;;5040726;28;20415;-83
2023/09/14 14:10:53;;;;;;;1.98;1.80;;;;;;;;;;5040327;28;20387;-83
2023/09/14 14:13:19;;;;;;;2.05;1.95;;;;;;;;;;5039241;28;20417;-83
2023/09/14 14:15:45;;;;;;;1.90;1.80;;;;;;;;;;5039861;28;20450;-83
2023/09/14 14:18:11;;;;;;;2.00;1.80;;;;;;;;;;5039678;28;20391;-83
2023/09/14 14:20:38;;;;;;;2.33;2.13;;;;;;;;;;5039551;28;20564;-83
2023/09/14 14:23:04;;;;;;;4.00;3.50;;;;;;;;;;5038975;28;20395;-83
2023/09/14 14:25:30;;;;;;;3.92;3.53;;;;;;;;;;5039197;28;20409;-83
2023/09/14 14:27:56;;;;;;;4.20;3.80;;;;;;;;;;5038979;28;20459;-83
2023/09/14 14:30:22;;;;;;;3.70;3.40;;;;;;;;;;5039104;28;20410;-83
2023/09/14 14:32:48;;;;;;;2.30;2.20;;;;;;;;;;5038777;28;20464;-83
2023/09/14 14:35:14;;;;;;;2.47;2.28;;;;;;;;;;5039971;28;20379;-83
2023/09/14 14:37:40;;;;;;;2.80;2.60;;;;;;;;;;5039474;28;20713;-83
2023/09/14 14:40:07;;;;;;;2.83;2.10;;;;;;;;;;5039266;28;20440;-83
2023/09/14 14:42:33;;;;;;;2.28;2.08;;;;;;;;;;5038079;28;20459;-83
2023/09/14 14:44:59;;;;;;;2.78;2.58;;;;;;;;;;5038401;28;20386;-83
2023/09/14 14:47:26;;;;;;;2.63;1.95;;;;;;;;;;5039111;28;20427;-83
2023/09/14 14:49:52;;;;;;;2.67;2.47;;;;;;;;;;5038575;28;20848;-83
2023/09/14 14:52:22;;;;;;;2.30;2.10;;;;;;;;;;5039230;28;20379;-83
2023/09/14 14:54:48;;;;;;;2.40;2.20;;;;;;;;;;5038530;28;20432;-83
2023/09/14 14:57:14;;;;;;;3.60;3.40;;;;;;;;;;5038420;28;20383;-83